createdAt,value
2019-06-26T00:01:36.678Z,61.50
2019-06-26T00:04:46.237Z,62.03
2019-06-26T00:07:59.943Z,65.73
2019-06-26T00:11:08.070Z,66.87
2019-06-26T00:14:27.610Z,67.90
2019-06-26T00:17:37.931Z,60.77
2019-06-26T00:20:41.290Z,65.10
2019-06-26T00:23:49.875Z,61.97
2019-06-26T00:26:59.194Z,59.57
2019-06-26T00:30:15.483Z,73.87
2019-06-26T00:33:29.804Z,74.00
2019-06-26T00:36:42.324Z,65.83
2019-06-26T00:40:06.216Z,74.17
2019-06-26T00:43:20.017Z,64.03
2019-06-26T00:46:30.397Z,62.27
2019-06-26T00:49:50.144Z,64.10
2019-06-26T00:53:06.528Z,71.90
2019-06-26T00:56:14.477Z,75.83
2019-06-26T00:59:28.504Z,81.37
2019-06-26T01:02:45.461Z,93.80
2019-06-26T01:05:52.892Z,86.97
2019-06-26T01:08:49.717Z,84.13
2019-06-26T01:12:03.463Z,77.40
2019-06-26T01:15:03.174Z,83.77
2019-06-26T01:18:05.029Z,71.50
2019-06-26T01:21:20.009Z,76.00
2019-06-26T01:24:27.888Z,70.43
2019-06-26T01:27:33.311Z,71.23
2019-06-26T01:30:53.075Z,56.77
2019-06-26T01:34:00.586Z,58.53
2019-06-26T01:37:22.389Z,55.80
2019-06-26T01:40:40.615Z,57.70
2019-06-26T01:43:50.231Z,49.67
2019-06-26T01:46:59.694Z,50.30
2019-06-26T01:50:08.561Z,47.87
2019-06-26T01:53:21.257Z,50.47
2019-06-26T01:56:42.062Z,50.53
2019-06-26T02:00:02.203Z,57.57
2019-06-26T02:03:12.970Z,55.93
2019-06-26T02:06:28.246Z,61.37
2019-06-26T02:09:37.290Z,66.03
2019-06-26T02:12:49.718Z,64.37
2019-06-26T02:16:15.707Z,63.07
2019-06-26T02:19:27.547Z,54.90
2019-06-26T02:22:37.079Z,51.00
2019-06-26T02:25:56.051Z,51.77
2019-06-26T02:29:05.839Z,52.20
2019-06-26T02:32:20.113Z,57.80
2019-06-26T02:35:25.191Z,54.80
2019-06-26T02:38:39.686Z,60.50
2019-06-26T02:41:57.083Z,55.90
2019-06-26T02:44:55.205Z,55.23
2019-06-26T02:48:03.640Z,52.73
2019-06-26T02:51:12.760Z,50.77
2019-06-26T02:54:31.163Z,48.93
2019-06-26T02:57:39.694Z,47.00
2019-06-26T03:00:53.651Z,51.23
2019-06-26T03:03:52.170Z,53.73
2019-06-26T03:07:01.046Z,52.03
2019-06-26T03:10:11.893Z,48.73
2019-06-26T03:13:28.510Z,47.97
2019-06-26T03:16:42.248Z,40.37
2019-06-26T03:19:51.942Z,47.00
2019-06-26T03:23:02.043Z,48.83
2019-06-26T03:26:06.583Z,52.40
2019-06-26T03:29:15.087Z,52.13
2019-06-26T03:32:26.712Z,49.90
2019-06-26T03:35:45.738Z,52.03
2019-06-26T03:38:48.845Z,54.40
2019-06-26T03:42:04.687Z,56.23
2019-06-26T03:45:25.304Z,60.27
2019-06-26T03:48:16.642Z,52.50
2019-06-26T03:51:33.418Z,51.90
2019-06-26T03:54:43.547Z,53.03
2019-06-26T03:57:54.559Z,53.93
2019-06-26T04:01:20.657Z,49.40
2019-06-26T04:04:28.519Z,47.90
2019-06-26T04:07:38.468Z,42.00
2019-06-26T04:10:43.528Z,40.33
2019-06-26T04:13:45.300Z,43.60
2019-06-26T04:17:02.489Z,38.97
2019-06-26T04:20:16.369Z,45.33
2019-06-26T04:23:19.127Z,48.70
2019-06-26T04:26:28.160Z,49.77
2019-06-26T04:29:41.814Z,46.20
2019-06-26T04:32:54.083Z,43.07
2019-06-26T04:36:02.509Z,44.83
2019-06-26T04:39:11.443Z,39.77
2019-06-26T04:42:24.636Z,36.83
2019-06-26T04:45:33.741Z,31.03
2019-06-26T04:48:46.043Z,34.10
2019-06-26T04:52:08.111Z,35.27
2019-06-26T04:55:24.767Z,34.70
2019-06-26T04:58:38.113Z,34.37
2019-06-26T05:01:51.366Z,34.53
2019-06-26T05:05:02.076Z,36.37
2019-06-26T05:08:16.194Z,36.87
2019-06-26T05:11:30.427Z,39.60
2019-06-26T05:14:39.626Z,32.77
2019-06-26T05:17:45.589Z,35.03
2019-06-26T05:20:56.124Z,33.50
2019-06-26T05:24:11.015Z,32.70
2019-06-26T05:27:18.930Z,40.63
2019-06-26T05:30:29.612Z,35.73
2019-06-26T05:33:43.262Z,34.63
2019-06-26T05:36:58.329Z,35.83
2019-06-26T05:40:08.049Z,32.03
2019-06-26T05:43:17.887Z,32.47
2019-06-26T05:46:30.699Z,33.17
2019-06-26T05:49:27.322Z,32.90
2019-06-26T05:52:42.686Z,34.37
2019-06-26T05:55:49.997Z,32.60
2019-06-26T05:58:53.449Z,31.07
2019-06-26T06:02:04.764Z,29.53
2019-06-26T06:05:25.754Z,29.97
2019-06-26T06:08:40.208Z,27.13
2019-06-26T06:11:49.582Z,29.40
2019-06-26T06:14:56.496Z,25.40
2019-06-26T06:18:09.141Z,26.93
2019-06-26T06:21:29.071Z,25.20
2019-06-26T06:24:42.969Z,26.13
2019-06-26T06:27:53.115Z,28.00
2019-06-26T06:31:02.061Z,29.20
2019-06-26T06:34:11.971Z,25.87
2019-06-26T06:37:24.694Z,26.43
2019-06-26T06:40:34.188Z,27.83
2019-06-26T06:43:49.799Z,27.63
2019-06-26T06:47:03.933Z,27.23
2019-06-26T06:49:54.152Z,28.13
2019-06-26T06:53:01.659Z,28.87
2019-06-26T06:56:13.173Z,27.30
2019-06-26T06:59:26.619Z,29.00
2019-06-26T07:02:42.706Z,27.87
2019-06-26T07:05:51.183Z,26.70
2019-06-26T07:09:01.167Z,26.17
2019-06-26T07:12:10.942Z,26.33
2019-06-26T07:15:24.985Z,26.03
2019-06-26T07:18:38.818Z,24.40
2019-06-26T07:21:48.017Z,23.40
2019-06-26T07:24:58.998Z,22.37
2019-06-26T07:28:08.657Z,22.70
2019-06-26T07:31:20.654Z,23.07
2019-06-26T07:34:31.493Z,23.60
2019-06-26T07:37:44.461Z,23.53
2019-06-26T07:40:53.703Z,22.67
2019-06-26T07:44:06.943Z,23.07
2019-06-26T07:47:42.002Z,21.77
2019-06-26T07:54:34.208Z,21.87
2019-06-26T07:57:43.718Z,19.93
2019-06-26T08:00:51.222Z,23.60
2019-06-26T08:04:02.383Z,21.87
2019-06-26T08:07:14.724Z,23.63
2019-06-26T08:10:26.881Z,22.57
2019-06-26T08:13:36.442Z,23.03
2019-06-26T08:16:45.795Z,22.57
2019-06-26T08:19:55.728Z,22.73
2019-06-26T08:23:05.517Z,21.50
2019-06-26T08:26:21.239Z,19.00
2019-06-26T08:29:29.227Z,17.83
2019-06-26T08:32:39.510Z,18.03
2019-06-26T08:35:48.191Z,17.20
2019-06-26T08:39:00.977Z,15.87
2019-06-26T08:42:11.059Z,15.40
2019-06-26T08:45:21.116Z,14.43
2019-06-26T08:48:39.021Z,15.67
2019-06-26T08:51:36.209Z,14.33
2019-06-26T08:54:45.756Z,14.17
2019-06-26T08:58:05.570Z,13.70
2019-06-26T09:01:16.239Z,13.30
2019-06-26T09:04:33.346Z,12.33
2019-06-26T09:07:43.837Z,13.80
2019-06-26T09:10:57.359Z,11.90
2019-06-26T09:14:09.135Z,13.27
2019-06-26T09:17:36.142Z,13.57
2019-06-26T09:20:54.537Z,13.87
2019-06-26T09:24:04.377Z,14.43
2019-06-26T09:27:15.318Z,13.93
2019-06-26T09:30:24.863Z,13.87
2019-06-26T09:33:38.567Z,11.97
2019-06-26T09:36:52.009Z,12.17
2019-06-26T09:40:01.486Z,12.90
2019-06-26T09:43:11.416Z,13.60
2019-06-26T09:46:25.255Z,14.03
2019-06-26T09:49:37.336Z,13.57
2019-06-26T09:52:48.623Z,14.30
2019-06-26T09:56:02.373Z,13.00
2019-06-26T09:59:06.025Z,13.30
2019-06-26T10:01:47.151Z,12.40
2019-06-26T10:04:18.826Z,11.57
2019-06-26T10:06:52.047Z,12.57
2019-06-26T10:09:25.076Z,12.97
2019-06-26T10:11:56.835Z,14.03
2019-06-26T10:14:45.517Z,14.63
2019-06-26T10:17:02.708Z,15.80
2019-06-26T10:19:35.017Z,16.77
2019-06-26T10:22:06.927Z,17.33
2019-06-26T10:24:38.659Z,17.70
2019-06-26T10:27:10.466Z,18.43
2019-06-26T10:29:42.332Z,19.13
2019-06-26T10:32:14.186Z,17.00
2019-06-26T10:34:46.021Z,19.47
2019-06-26T10:37:17.941Z,22.10
2019-06-26T10:39:50.912Z,22.97
2019-06-26T10:42:22.677Z,23.87
2019-06-26T10:44:56.089Z,23.27
2019-06-26T10:47:28.495Z,22.53
2019-06-26T10:50:00.324Z,22.97
2019-06-26T10:52:32.185Z,25.53
2019-06-26T10:55:04.606Z,26.60
2019-06-26T10:57:36.448Z,27.77
2019-06-26T11:00:09.708Z,26.70
2019-06-26T11:02:41.622Z,26.67
2019-06-26T11:05:15.656Z,33.33
2019-06-26T11:07:47.642Z,27.93
2019-06-26T11:10:19.470Z,27.87
2019-06-26T11:12:51.946Z,26.40
2019-06-26T11:15:25.320Z,30.50
2019-06-26T11:17:57.243Z,31.93
2019-06-26T11:20:30.444Z,24.97
2019-06-26T11:23:03.539Z,21.67
2019-06-26T11:25:35.118Z,26.77
2019-06-26T11:28:06.881Z,28.73
2019-06-26T11:30:39.690Z,32.50
2019-06-26T11:33:11.222Z,32.30
2019-06-26T11:35:42.987Z,30.47
2019-06-26T11:38:14.843Z,32.53
2019-06-26T11:40:46.447Z,35.50
2019-06-26T11:43:18.611Z,40.80
2019-06-26T11:45:50.683Z,42.13
2019-06-26T11:48:22.229Z,35.50
2019-06-26T11:50:55.677Z,36.27
2019-06-26T11:53:29.694Z,33.40
2019-06-26T11:56:01.559Z,31.53
2019-06-26T11:58:33.696Z,35.50
2019-06-26T12:01:05.492Z,32.07
2019-06-26T12:03:37.679Z,26.97
2019-06-26T12:06:18.180Z,23.97
2019-06-26T12:08:43.355Z,23.73
2019-06-26T12:11:15.376Z,23.67
2019-06-26T12:13:47.134Z,22.57
2019-06-26T12:16:18.769Z,21.63
2019-06-26T12:18:52.072Z,19.63
2019-06-26T12:21:23.897Z,18.07
2019-06-26T12:23:56.365Z,20.17
2019-06-26T12:26:28.038Z,18.93
2019-06-26T12:28:59.900Z,22.23
2019-06-26T12:31:31.845Z,27.17
2019-06-26T12:34:06.173Z,25.60
2019-06-26T12:36:38.070Z,22.50
2019-06-26T12:39:10.956Z,22.47
2019-06-26T12:41:44.784Z,28.90
2019-06-26T12:44:17.445Z,24.70
2019-06-26T12:46:50.260Z,25.90
2019-06-26T12:49:21.918Z,25.47
2019-06-26T12:51:53.766Z,31.10
2019-06-26T12:54:26.727Z,24.30
2019-06-26T12:56:58.419Z,31.70
2019-06-26T12:59:30.093Z,26.57
2019-06-26T13:02:01.903Z,23.43
2019-06-26T13:04:33.549Z,27.53
2019-06-26T13:07:04.895Z,29.37
2019-06-26T13:09:37.525Z,31.07
2019-06-26T13:12:10.442Z,27.33
2019-06-26T13:14:44.209Z,27.23
2019-06-26T13:17:17.223Z,25.50
2019-06-26T13:19:48.655Z,23.63
2019-06-26T13:22:20.206Z,28.80
2019-06-26T13:24:51.735Z,25.07
2019-06-26T13:27:23.323Z,25.27
2019-06-26T13:29:54.895Z,30.40
2019-06-26T13:32:26.321Z,30.77
2019-06-26T13:34:57.839Z,19.80
2019-06-26T13:37:29.341Z,23.80
2019-06-26T13:40:01.228Z,24.17
2019-06-26T13:42:32.617Z,21.57
2019-06-26T13:45:04.432Z,22.83
2019-06-26T13:47:36.525Z,21.53
2019-06-26T13:50:08.423Z,21.47
2019-06-26T13:52:40.098Z,24.60
2019-06-26T13:55:11.690Z,23.30
2019-06-26T13:57:43.495Z,23.70
2019-06-26T14:00:15.395Z,17.13
2019-06-26T14:02:47.019Z,23.50
2019-06-26T14:05:18.982Z,22.97
2019-06-26T14:07:51.000Z,23.57
2019-06-26T14:10:22.837Z,23.77
2019-06-26T14:12:54.573Z,28.03
2019-06-26T14:15:26.441Z,23.13
2019-06-26T14:17:57.884Z,24.03
2019-06-26T14:20:29.647Z,18.73
2019-06-26T14:25:50.362Z,18.97
2019-06-26T14:28:46.005Z,17.70
2019-06-26T14:31:46.630Z,16.67
2019-06-26T14:34:51.891Z,19.07
2019-06-26T14:37:49.185Z,20.57
2019-06-26T14:40:47.709Z,19.00
2019-06-26T14:43:47.349Z,15.13
2019-06-26T14:46:42.845Z,13.00
2019-06-26T14:49:46.522Z,14.47
2019-06-26T14:52:45.683Z,16.23
2019-06-26T14:55:41.316Z,16.87
2019-06-26T14:58:40.980Z,18.77
2019-06-26T15:01:39.861Z,19.03
2019-06-26T15:04:39.334Z,17.00
2019-06-26T15:07:38.270Z,13.73
2019-06-26T15:10:40.345Z,17.03
2019-06-26T15:13:44.521Z,12.90
2019-06-26T15:16:42.409Z,16.37
2019-06-26T15:19:39.426Z,17.77
2019-06-26T15:22:39.003Z,15.77
2019-06-26T15:25:34.850Z,16.23
2019-06-26T15:28:34.954Z,14.43
2019-06-26T15:31:34.851Z,19.47
2019-06-26T15:34:32.334Z,13.77
2019-06-26T15:37:36.468Z,24.67
2019-06-26T15:40:50.973Z,14.53
2019-06-26T15:43:49.975Z,12.63
2019-06-26T15:46:54.321Z,13.33
2019-06-26T15:49:48.572Z,17.13
2019-06-26T15:52:49.246Z,12.87
2019-06-26T15:55:48.378Z,12.77
2019-06-26T15:58:52.123Z,16.30
2019-06-26T16:01:56.766Z,14.73
2019-06-26T16:04:59.416Z,16.43
2019-06-26T16:07:55.808Z,15.77
2019-06-26T16:10:58.240Z,18.13
2019-06-26T16:13:58.257Z,20.43
2019-06-26T16:16:59.417Z,16.67
2019-06-26T16:19:57.376Z,15.10
2019-06-26T16:23:04.096Z,22.13
2019-06-26T16:26:03.495Z,20.30
2019-06-26T16:29:02.253Z,16.07
2019-06-26T16:32:02.506Z,12.90
2019-06-26T16:35:03.284Z,16.73
2019-06-26T16:38:03.713Z,15.47
2019-06-26T16:41:04.227Z,17.27
2019-06-26T16:44:03.165Z,15.63
2019-06-26T16:47:09.967Z,18.70
2019-06-26T16:50:03.283Z,16.63
2019-06-26T16:53:04.613Z,20.93
2019-06-26T16:56:08.636Z,15.20
2019-06-26T16:59:08.659Z,14.07
2019-06-26T17:01:58.146Z,14.63
2019-06-26T17:04:53.125Z,13.10
2019-06-26T17:07:47.127Z,10.30
2019-06-26T17:10:39.091Z,14.97
2019-06-26T17:13:31.075Z,13.00
2019-06-26T17:16:20.273Z,13.90
2019-06-26T17:19:11.585Z,17.03
2019-06-26T17:22:03.431Z,19.63
2019-06-26T17:24:54.082Z,19.67
2019-06-26T17:27:49.636Z,14.67
2019-06-26T17:30:31.815Z,16.53
2019-06-26T17:33:18.956Z,19.50
2019-06-26T17:36:15.891Z,16.73
2019-06-26T17:39:06.355Z,16.23
2019-06-26T17:41:54.066Z,22.57
2019-06-26T17:47:52.159Z,18.87
2019-06-26T17:50:38.271Z,17.97
2019-06-26T17:53:24.766Z,16.10
2019-06-26T17:56:11.683Z,16.83
2019-06-26T17:59:02.968Z,16.00
2019-06-26T18:01:52.440Z,14.60
2019-06-26T18:04:34.821Z,18.93
2019-06-26T18:07:32.266Z,18.13
2019-06-26T18:10:34.979Z,18.07
2019-06-26T18:13:35.206Z,16.90
2019-06-26T18:16:31.943Z,12.27
2019-06-26T18:19:36.219Z,14.50
2019-06-26T18:22:37.589Z,13.70
2019-06-26T18:25:33.933Z,17.60
2019-06-26T18:28:34.337Z,15.77
2019-06-26T18:31:33.860Z,16.40
2019-06-26T18:34:32.981Z,15.10
2019-06-26T18:37:37.596Z,21.80
2019-06-26T18:40:31.282Z,12.80
2019-06-26T18:43:28.577Z,14.30
2019-06-26T18:46:28.024Z,13.67
2019-06-26T18:49:23.726Z,15.03
2019-06-26T18:52:23.057Z,18.30
2019-06-26T18:55:19.349Z,19.83
2019-06-26T18:58:25.303Z,12.27
2019-06-26T19:01:25.717Z,18.53
2019-06-26T19:04:21.063Z,15.70
2019-06-26T19:07:21.751Z,17.80
2019-06-26T19:10:27.024Z,13.87
2019-06-26T19:13:23.545Z,11.50
2019-06-26T19:16:25.950Z,10.47
2019-06-26T19:19:26.926Z,13.37
2019-06-26T19:22:33.223Z,15.47
2019-06-26T19:25:33.210Z,17.63
2019-06-26T19:28:32.537Z,13.03
2019-06-26T19:31:36.388Z,20.13
2019-06-26T19:34:41.376Z,13.33
2019-06-26T19:37:45.006Z,19.13
2019-06-26T19:40:49.573Z,12.00
2019-06-26T19:43:52.169Z,16.70
2019-06-26T19:46:58.258Z,20.60
2019-06-26T19:50:01.867Z,15.90
2019-06-26T19:53:03.206Z,13.23
2019-06-26T19:56:06.961Z,20.47
2019-06-26T19:59:11.684Z,14.80
2019-06-26T20:02:21.516Z,16.10
2019-06-26T20:05:31.850Z,15.23
2019-06-26T20:08:51.702Z,16.57
2019-06-26T20:11:40.999Z,14.80
2019-06-26T20:14:43.969Z,17.33
2019-06-26T20:17:46.770Z,18.57
2019-06-26T20:20:47.117Z,17.10
2019-06-26T20:23:49.816Z,12.40
2019-06-26T20:26:53.358Z,14.10
2019-06-26T20:30:04.274Z,13.43
2019-06-26T20:33:12.380Z,17.47
2019-06-26T20:36:23.874Z,14.40
2019-06-26T20:39:35.629Z,18.33
2019-06-26T20:42:45.898Z,14.00
2019-06-26T20:45:58.380Z,16.70
2019-06-26T20:49:04.188Z,18.67
2019-06-26T20:52:10.439Z,17.27
2019-06-26T20:55:08.171Z,15.43
2019-06-26T20:58:14.470Z,14.70
2019-06-26T21:01:22.303Z,17.17
2019-06-26T21:04:28.974Z,19.27
2019-06-26T21:07:33.898Z,14.13
2019-06-26T21:10:40.812Z,24.97
2019-06-26T21:13:51.070Z,19.77
2019-06-26T21:16:56.312Z,18.10
2019-06-26T21:20:06.020Z,19.53
2019-06-26T21:23:18.682Z,17.17
2019-06-26T21:26:21.388Z,18.13
2019-06-26T21:29:32.772Z,16.57
2019-06-26T21:32:29.971Z,15.37
2019-06-26T21:35:32.898Z,17.00
2019-06-26T21:38:35.016Z,21.23
2019-06-26T21:41:46.338Z,17.50
2019-06-26T21:44:41.598Z,15.00
2019-06-26T21:47:44.378Z,18.80
2019-06-26T21:50:46.554Z,19.87
2019-06-26T21:53:52.741Z,21.37
2019-06-26T21:57:20.941Z,16.77
2019-06-26T22:00:41.541Z,15.07
2019-06-26T22:03:59.501Z,19.97
2019-06-26T22:07:24.316Z,17.23
2019-06-26T22:10:45.630Z,23.50
2019-06-26T22:13:49.638Z,15.57
2019-06-26T22:16:54.353Z,15.87
2019-06-26T22:19:47.607Z,17.57
2019-06-26T22:22:49.150Z,16.53
2019-06-26T22:25:52.630Z,19.33
2019-06-26T22:28:55.361Z,16.80
2019-06-26T22:32:04.394Z,16.53
2019-06-26T22:35:06.731Z,14.33
2019-06-26T22:38:14.880Z,13.23
2019-06-26T22:41:22.292Z,16.57
2019-06-26T22:44:22.476Z,19.93
2019-06-26T22:47:26.274Z,11.90
2019-06-26T22:50:28.304Z,19.23
2019-06-26T22:53:33.314Z,20.00
2019-06-26T22:56:35.556Z,15.10
2019-06-26T22:59:40.663Z,17.07
2019-06-26T23:02:43.251Z,16.87
2019-06-26T23:05:41.818Z,21.20
2019-06-26T23:08:48.051Z,20.20
2019-06-26T23:11:51.394Z,17.97
2019-06-26T23:14:55.409Z,15.70
2019-06-26T23:17:55.757Z,18.20
2019-06-26T23:21:03.522Z,18.93
2019-06-26T23:24:07.553Z,14.43
2019-06-26T23:27:10.213Z,14.10
2019-06-26T23:30:12.502Z,21.00
2019-06-26T23:33:12.967Z,20.70
2019-06-26T23:36:16.085Z,24.33
2019-06-26T23:39:18.716Z,20.10
2019-06-26T23:42:29.380Z,19.87
2019-06-26T23:45:26.565Z,16.40
2019-06-26T23:48:30.328Z,16.10
2019-06-26T23:51:31.195Z,14.70
2019-06-26T23:54:28.789Z,16.57
2019-06-26T23:57:33.879Z,14.27
